Time;durP1;ratioP1;P1;durP2;ratioP2;P2;SDS_P1;SDS_P2;PMS_P1;PMS_P2;Temp;Humidity;BMP_temperature;BMP_pressure;BME280_temperature;BME280_humidity;BME280_pressure;Samples;Min_cycle;Max_cycle;Signal;HPM_P1;HPM_P2
2022/05/12 00:04:59;;;;;;;6.00;3.80;;;22.20;61.70;;;;;;21096629;28;20245;-64
2022/05/12 00:15:04;;;;;;;6.53;4.07;;;21.90;64.40;;;;;;21098166;28;20748;-72
2022/05/12 00:25:11;;;;;;;6.40;3.67;;;21.60;66.80;;;;;;21097418;28;20602;-71
2022/05/12 00:35:15;;;;;;;5.93;3.80;;;21.40;68.30;;;;;;21096460;28;20214;-67
2022/05/12 00:45:17;;;;;;;4.30;3.30;;;21.20;70.70;;;;;;21093993;28;20234;-63
2022/05/12 00:55:28;;;;;;;5.17;3.60;;;21.10;71.90;;;;;;21093374;28;20210;-64
2022/05/12 01:05:30;;;;;;;4.77;3.50;;;21.10;73.10;;;;;;21092971;28;20332;-62
2022/05/12 01:15:32;;;;;;;5.37;3.20;;;21.00;74.10;;;;;;21091464;28;20245;-65
2022/05/12 01:25:34;;;;;;;10.00;3.60;;;20.90;74.90;;;;;;21090923;28;20739;-71
2022/05/12 01:35:35;;;;;;;7.23;3.37;;;20.80;75.50;;;;;;21071664;28;20539;-70
2022/05/12 01:45:37;;;;;;;7.23;3.50;;;20.80;76.20;;;;;;21089140;28;20233;-70
2022/05/12 01:55:39;;;;;;;5.60;3.83;;;20.70;76.60;;;;;;21088322;28;20241;-63
2022/05/12 02:05:42;;;;;;;4.63;3.37;;;20.60;77.20;;;;;;21087996;28;20241;-63
2022/05/12 02:15:44;;;;;;;4.33;3.50;;;20.50;77.60;;;;;;21072598;28;20254;-63
2022/05/12 02:25:45;;;;;;;4.60;3.70;;;20.50;77.90;;;;;;21001909;28;20257;-68
2022/05/12 02:35:48;;;;;;;3.40;3.03;;;20.40;78.00;;;;;;20983859;28;20302;-70
2022/05/12 02:45:53;;;;;;;6.43;3.53;;;20.30;78.80;;;;;;20999503;28;20273;-70
2022/05/12 02:55:56;;;;;;;7.80;3.70;;;20.20;78.80;;;;;;20999653;28;20604;-70
2022/05/12 03:05:59;;;;;;;5.17;3.30;;;20.20;78.10;;;;;;20999380;28;20608;-65
2022/05/12 03:16:01;;;;;;;6.33;3.33;;;20.10;77.70;;;;;;21016892;28;20366;-71
2022/05/12 03:26:03;;;;;;;3.67;3.30;;;20.10;77.60;;;;;;21081462;28;20237;-62
2022/05/12 03:36:05;;;;;;;5.23;3.80;;;20.00;77.40;;;;;;21080746;28;20210;-69
2022/05/12 03:46:07;;;;;;;6.53;3.90;;;19.80;78.00;;;;;;21079883;28;20228;-72
2022/05/12 03:56:09;;;;;;;5.73;3.30;;;19.60;78.70;;;;;;21078708;28;20213;-72
2022/05/12 04:06:11;;;;;;;4.97;3.50;;;19.40;79.90;;;;;;21078910;28;20717;-70
2022/05/12 04:16:15;;;;;;;8.33;3.33;;;19.30;80.50;;;;;;21077848;28;20233;-70
2022/05/12 04:26:17;;;;;;;4.73;3.07;;;19.30;80.00;;;;;;21077815;28;20256;-65
2022/05/12 04:36:19;;;;;;;6.53;3.67;;;19.50;79.30;;;;;;21077537;28;20206;-72
2022/05/12 04:46:20;;;;;;;4.83;2.90;;;19.60;78.70;;;;;;21076918;28;20237;-71
2022/05/12 04:56:22;;;;;;;5.60;2.80;;;19.90;77.70;;;;;;21075724;28;20661;-71
2022/05/12 05:06:24;;;;;;;4.97;2.90;;;19.90;77.20;;;;;;21063056;28;20262;-69
2022/05/12 05:16:25;;;;;;;5.80;3.50;;;19.90;76.70;;;;;;21090976;28;20243;-69
2022/05/12 05:26:27;;;;;;;9.93;2.80;;;20.00;76.60;;;;;;21099318;28;20249;-67
2022/05/12 05:36:29;;;;;;;9.73;3.10;;;20.00;76.40;;;;;;21109967;28;20237;-63
2022/05/12 05:46:31;;;;;;;7.20;2.80;;;20.00;76.50;;;;;;21092475;28;20248;-67
2022/05/12 05:56:32;;;;;;;7.07;3.80;;;20.00;76.90;;;;;;21087777;28;20206;-69
2022/05/12 06:06:34;;;;;;;12.83;2.80;;;20.00;77.40;;;;;;21068778;28;20294;-70
2022/05/12 06:16:36;;;;;;;6.93;2.87;;;20.20;77.60;;;;;;21084071;28;20596;-71
2022/05/12 06:26:38;;;;;;;11.57;7.37;;;20.30;77.40;;;;;;21084803;28;20241;-63
2022/05/12 06:36:40;;;;;;;6.37;2.97;;;20.50;77.10;;;;;;21083867;28;20206;-68
2022/05/12 06:46:42;;;;;;;4.57;2.37;;;20.30;76.30;;;;;;21082001;28;20263;-68
2022/05/12 06:56:44;;;;;;;8.57;2.67;;;20.30;76.10;;;;;;21081105;28;20206;-70
2022/05/12 07:06:46;;;;;;;8.10;2.90;;;20.40;76.00;;;;;;21080613;28;20230;-71
2022/05/12 07:16:48;;;;;;;5.63;2.73;;;20.70;75.80;;;;;;21080383;28;20226;-71
2022/05/12 07:26:52;;;;;;;3.50;2.87;;;20.90;76.00;;;;;;21079019;28;20283;-68
2022/05/12 07:36:54;;;;;;;12.00;3.40;;;20.90;75.20;;;;;;21079112;28;20290;-68
2022/05/12 07:46:56;;;;;;;13.27;3.50;;;20.90;74.80;;;;;;21078464;28;20240;-68
2022/05/12 07:56:57;;;;;;;4.60;2.43;;;21.10;74.70;;;;;;21079421;28;20207;-63
2022/05/12 08:07:01;;;;;;;6.53;2.13;;;21.30;73.80;;;;;;21078393;28;20292;-63
2022/05/12 08:17:03;;;;;;;14.50;2.40;;;21.50;72.10;;;;;;21091632;28;20238;-68
2022/05/12 08:27:05;;;;;;;4.53;1.83;;;21.10;71.30;;;;;;21079659;28;20769;-65
2022/05/12 08:37:09;;;;;;;4.43;2.00;;;21.30;71.10;;;;;;21058736;28;20198;-70
2022/05/12 08:47:16;;;;;;;2.40;1.40;;;21.40;70.80;;;;;;21090410;28;20237;-65
2022/05/12 08:57:33;;;;;;;5.33;1.70;;;21.90;68.80;;;;;;21091590;28;20214;-67
2022/05/12 09:07:56;;;;;;;5.07;1.73;;;22.30;66.30;;;;;;21088502;28;20261;-66
2022/05/12 09:18:01;;;;;;;11.27;1.73;;;22.40;64.90;;;;;;21088694;28;20234;-67
2022/05/12 09:28:24;;;;;;;3.10;1.77;;;22.30;64.20;;;;;;21089321;28;20639;-64
2022/05/12 09:38:27;;;;;;;11.10;1.60;;;22.20;62.30;;;;;;21087782;28;20202;-64
2022/05/12 09:48:31;;;;;;;5.10;1.50;;;22.80;61.40;;;;;;21087022;28;20292;-66
2022/05/12 09:58:35;;;;;;;6.17;1.60;;;22.80;60.60;;;;;;21066991;28;20207;-63
2022/05/12 10:08:44;;;;;;;4.67;1.27;;;22.80;60.20;;;;;;21085908;28;20269;-63
2022/05/12 10:18:50;;;;;;;4.93;1.53;;;22.90;60.00;;;;;;21085351;28;20259;-64
2022/05/12 10:29:14;;;;;;;5.07;1.30;;;23.10;58.40;;;;;;21064084;28;20256;-69
2022/05/12 10:39:47;;;;;;;2.73;1.20;;;22.90;57.80;;;;;;21080175;28;20218;-68
2022/05/12 10:50:13;;;;;;;3.43;1.40;;;23.10;56.90;;;;;;21078382;28;20388;-70
2022/05/12 11:00:26;;;;;;;6.93;1.60;;;23.10;56.40;;;;;;21091356;28;20234;-67
2022/05/12 11:10:50;;;;;;;7.93;1.90;;;23.00;56.10;;;;;;21080100;28;20209;-70
2022/05/12 11:21:11;;;;;;;11.60;1.40;;;22.90;56.10;;;;;;21079429;28;20246;-67
2022/05/12 11:31:42;;;;;;;3.57;1.50;;;22.80;55.60;;;;;;21078789;28;20613;-64
2022/05/12 11:41:44;;;;;;;7.10;1.60;;;22.80;54.50;;;;;;21065620;28;20230;-64
2022/05/12 11:52:23;;;;;;;6.43;1.47;;;22.90;53.10;;;;;;21075429;28;20781;-62
2022/05/12 12:02:28;;;;;;;4.20;1.60;;;23.40;52.80;;;;;;21076689;28;20727;-64
2022/05/12 12:12:45;;;;;;;6.43;2.47;;;23.60;51.80;;;;;;21077065;28;20264;-69
2022/05/12 12:22:52;;;;;;;6.23;3.07;;;23.60;51.50;;;;;;21076043;28;20268;-63
2022/05/12 12:33:31;;;;;;;7.23;1.57;;;23.70;52.30;;;;;;21057698;28;20217;-63
2022/05/12 12:43:42;;;;;;;1.87;1.20;;;23.90;52.00;;;;;;21063190;28;20226;-66
2022/05/12 13:04:10;;;;;;;7.57;1.70;;;24.20;51.80;;;;;;21075933;28;20238;-65
2022/05/12 13:14:15;;;;;;;3.17;1.40;;;24.20;51.50;;;;;;21065542;28;20298;-63
2022/05/12 13:24:27;;;;;;;2.93;1.30;;;24.50;51.90;;;;;;20993701;28;20277;-69
2022/05/12 13:34:34;;;;;;;6.57;1.27;;;24.80;51.00;;;;;;21010269;28;20726;-65
2022/05/12 13:44:48;;;;;;;10.60;1.30;;;24.90;50.10;;;;;;21006810;28;20230;-65
2022/05/12 13:54:58;;;;;;;1.73;1.17;;;25.00;49.60;;;;;;21004250;28;20684;-63
2022/05/12 14:05:12;;;;;;;8.97;1.40;;;24.90;49.50;;;;;;21003016;28;20266;-63
2022/05/12 14:25:37;;;;;;;6.33;3.90;;;25.30;48.40;;;;;;21085186;28;20226;-73
2022/05/12 14:35:38;;;;;;;6.67;1.70;;;26.30;47.50;;;;;;21084547;28;20233;-65
2022/05/12 14:45:40;;;;;;;6.80;2.50;;;25.80;47.10;;;;;;21081223;28;20261;-69
2022/05/12 14:55:42;;;;;;;5.10;1.60;;;27.30;46.30;;;;;;21064516;28;20203;-70
2022/05/12 15:05:44;;;;;;;1.93;1.30;;;26.10;47.10;;;;;;21081656;28;20238;-71
2022/05/12 15:15:47;;;;;;;3.78;1.65;;;26.20;47.50;;;;;;21080255;28;20237;-69
2022/05/12 15:25:49;;;;;;;6.63;2.23;;;26.80;46.70;;;;;;21080130;28;20239;-62
2022/05/12 15:35:54;;;;;;;3.23;1.30;;;25.80;47.80;;;;;;21080395;28;20351;-63
2022/05/12 15:45:56;;;;;;;2.37;1.40;;;25.40;48.20;;;;;;21079688;28;20226;-71
2022/05/12 15:55:58;;;;;;;4.27;2.50;;;25.30;48.30;;;;;;21078389;28;20570;-67
2022/05/12 16:06:00;;;;;;;2.67;1.50;;;25.40;49.00;;;;;;21080959;28;20248;-63
2022/05/12 16:16:02;;;;;;;4.53;2.40;;;25.20;48.30;;;;;;21089815;28;20256;-68
2022/05/12 16:26:09;;;;;;;3.43;2.30;;;25.00;48.30;;;;;;21090148;28;20701;-76
2022/05/12 16:36:13;;;;;;;2.83;1.60;;;24.90;48.60;;;;;;21079301;28;20203;-73
2022/05/12 16:46:16;;;;;;;4.30;2.10;;;24.70;48.90;;;;;;21077790;28;20234;-64
2022/05/12 16:56:18;;;;;;;4.67;1.90;;;24.60;48.70;;;;;;21077073;28;20202;-70
2022/05/12 17:06:20;;;;;;;4.80;2.93;;;24.20;49.20;;;;;;21045479;28;20321;-71
2022/05/12 17:16:22;;;;;;;3.27;1.63;;;24.20;50.00;;;;;;21053916;28;20296;-63
2022/05/12 17:26:24;;;;;;;5.90;1.80;;;24.30;50.00;;;;;;21029696;28;20288;-65
2022/05/12 17:36:25;;;;;;;3.60;1.70;;;24.30;50.30;;;;;;21006549;28;20250;-64
2022/05/12 17:46:27;;;;;;;6.63;2.10;;;24.20;50.30;;;;;;20987226;28;20285;-63
2022/05/12 17:56:29;;;;;;;4.80;2.00;;;24.00;50.60;;;;;;21001459;28;20214;-69
2022/05/12 18:06:31;;;;;;;4.47;1.80;;;23.80;50.80;;;;;;21078041;28;20234;-63
2022/05/12 18:16:33;;;;;;;5.93;1.63;;;23.60;51.30;;;;;;21102809;28;20585;-62
2022/05/12 18:26:39;;;;;;;3.83;1.60;;;23.30;51.80;;;;;;21086340;28;20233;-63
2022/05/12 18:36:41;;;;;;;7.47;1.77;;;23.10;52.90;;;;;;21097571;28;20202;-65
2022/05/12 18:46:43;;;;;;;7.03;2.00;;;22.70;54.10;;;;;;21164949;27;20234;-63
2022/05/12 18:56:45;;;;;;;3.33;2.03;;;22.40;54.80;;;;;;21166044;28;20716;-71
2022/05/12 19:06:47;;;;;;;4.40;1.80;;;22.30;55.20;;;;;;21164749;28;20229;-62
2022/05/12 19:16:49;;;;;;;4.90;1.90;;;22.20;55.50;;;;;;21164267;28;20797;-64
2022/05/12 19:26:51;;;;;;;4.87;2.33;;;22.00;55.80;;;;;;21144359;28;20236;-65
2022/05/12 19:36:59;;;;;;;2.30;1.60;;;21.90;56.30;;;;;;21162560;28;20259;-67
2022/05/12 19:47:01;;;;;;;3.93;1.93;;;21.80;56.90;;;;;;21161942;28;20246;-64
2022/05/12 19:57:09;;;;;;;4.77;2.20;;;21.60;58.50;;;;;;21161004;28;20201;-65
2022/05/12 20:07:12;;;;;;;2.97;1.73;;;21.30;59.20;;;;;;21160683;28;20290;-65
2022/05/12 20:17:13;;;;;;;5.80;2.20;;;21.10;60.30;;;;;;21141904;28;20234;-63
2022/05/12 20:27:17;;;;;;;5.30;2.00;;;21.00;61.20;;;;;;21158983;28;20233;-63
2022/05/12 20:37:19;;;;;;;5.07;2.00;;;20.90;61.60;;;;;;21140570;28;20205;-65
2022/05/12 20:47:21;;;;;;;6.53;1.93;;;20.90;61.90;;;;;;21006638;28;20246;-69
2022/05/12 20:57:23;;;;;;;5.80;2.37;;;20.70;62.60;;;;;;21007597;28;20214;-63
2022/05/12 21:07:25;;;;;;;3.80;1.70;;;20.70;62.90;;;;;;21006495;28;20231;-63
2022/05/12 21:17:27;;;;;;;4.90;2.00;;;20.80;62.40;;;;;;21005465;28;20237;-65
2022/05/12 21:27:28;;;;;;;3.13;1.60;;;20.90;62.00;;;;;;21004580;28;20237;-66
2022/05/12 21:37:30;;;;;;;2.53;1.87;;;20.90;61.70;;;;;;21004123;28;20275;-61
2022/05/12 21:47:33;;;;;;;6.30;1.70;;;20.90;61.20;;;;;;21006282;28;20241;-70
2022/05/12 22:07:55;;;;;;;3.53;1.80;;;20.80;61.70;;;;;;21003851;28;20287;-70
2022/05/12 22:17:57;;;;;;;3.27;1.87;;;20.70;62.10;;;;;;21001793;28;20238;-67
2022/05/12 22:27:59;;;;;;;6.50;1.80;;;20.70;62.60;;;;;;20999163;28;20285;-71
2022/05/12 22:38:01;;;;;;;6.73;1.93;;;20.60;62.90;;;;;;21001891;28;20213;-71
2022/05/12 22:48:03;;;;;;;3.97;1.90;;;20.50;63.00;;;;;;21001342;28;20635;-69
2022/05/12 22:58:05;;;;;;;4.70;1.70;;;20.50;62.90;;;;;;20999098;28;20211;-70
2022/05/12 23:08:08;;;;;;;5.23;1.70;;;20.50;62.70;;;;;;20999232;28;20284;-69
2022/05/12 23:18:10;;;;;;;6.20;1.90;;;20.40;62.20;;;;;;20998859;28;20239;-65
2022/05/12 23:28:12;;;;;;;3.73;1.60;;;20.40;62.20;;;;;;20998761;28;20244;-68
2022/05/12 23:38:13;;;;;;;3.30;1.60;;;20.30;61.80;;;;;;20997371;28;20206;-65
2022/05/12 23:48:16;;;;;;;3.27;1.50;;;20.30;61.70;;;;;;20996817;28;20234;-63
2022/05/12 23:58:18;;;;;;;4.70;1.70;;;20.30;61.40;;;;;;20995920;28;20249;-70
